Time;durP1;ratioP1;P1;durP2;ratioP2;P2;SDS_P1;SDS_P2;PMS_P1;PMS_P2;Temp;Humidity;BMP_temperature;BMP_pressure;BME280_temperature;BME280_humidity;BME280_pressure;Samples;Min_cycle;Max_cycle;Signal;HPM_P1;HPM_P2
2022/06/25 04:07:39;;;;;;;18.92;15.18;;;;;;;;;;5149348;27;20347;-77
2022/06/25 04:10:05;;;;;;;16.30;14.60;;;;;;;;;;5111806;28;20720;-77
2022/06/25 04:12:31;;;;;;;15.65;14.05;;;17.00;99.90;;;;;;5111445;28;20783;-77
2022/06/25 04:14:57;;;;;;;15.63;13.93;;;;;;;;;;5128836;28;20396;-77
2022/06/25 04:17:23;;;;;;;16.92;14.68;;;;;;;;;;5128432;28;20928;-77
2022/06/25 04:19:49;;;;;;;15.52;13.88;;;;;;;;;;5111331;28;20400;-77
2022/06/25 04:22:15;;;;;;;15.32;13.73;;;;;;;;;;5128611;28;20398;-77
2022/06/25 04:24:42;;;;;;;14.85;13.35;;;;;;;;;;5129625;28;20453;-77
2022/06/25 04:29:03;;;;;;;15.05;13.18;;;;;;;;;;5128324;28;20791;-77
2022/06/25 04:29:54;;;;;;;16.33;12.93;;;;;;;;;;5128231;28;20399;-77
2022/06/25 04:32:20;;;;;;;14.43;12.85;;;;;;;;;;5111294;28;20434;-77
2022/06/25 04:34:46;;;;;;;13.40;12.00;;;;;;;;;;5129563;28;20387;-77
2022/06/25 04:37:12;;;;;;;13.95;12.45;;;;;;;;;;5128056;28;20407;-77
2022/06/25 04:39:38;;;;;;;14.35;12.85;;;;;;;;;;5110947;28;20407;-77
2022/06/25 04:42:04;;;;;;;14.70;13.10;;;;;;;;;;5128024;28;20751;-77
2022/06/25 04:44:31;;;;;;;14.18;12.75;;;;;;;;;;5129242;28;20388;-76
2022/06/25 04:46:57;;;;;;;14.98;12.77;;;;;;;;;;5127778;28;20423;-76
2022/06/25 04:49:23;;;;;;;16.15;12.40;;;;;;;;;;5127806;28;20434;-76
2022/06/25 04:51:49;;;;;;;15.40;12.55;;;;;;;;;;5127800;28;20395;-76
2022/06/25 04:54:15;;;;;;;15.10;12.75;;;17.20;99.90;;;;;;5129056;28;20387;-76
2022/06/25 04:56:42;;;;;;;15.13;12.30;;;;;;;;;;5111011;28;20406;-76
2022/06/25 04:59:08;;;;;;;13.68;12.15;;;;;;;;;;5127965;28;20435;-76
2022/06/25 05:01:34;;;;;;;16.42;12.55;;;;;;;;;;5127639;28;20407;-76
2022/06/25 05:04:00;;;;;;;13.32;11.82;;;;;;;;;;5110529;28;20435;-76
2022/06/25 05:06:26;;;;;;;12.75;11.45;;;;;;;;;;5110325;28;20771;-77
2022/06/25 05:08:52;;;;;;;12.63;11.32;;;;;;;;;;5127519;28;20424;-77
2022/06/25 05:11:19;;;;;;;12.75;11.30;;;;;;;;;;5110818;28;20775;-77
2022/06/25 05:13:45;;;;;;;12.60;11.30;;;;;;;;;;5110290;28;20951;-76
2022/06/25 05:16:11;;;;;;;12.02;10.82;;;;;;;;;;5110427;28;20724;-76
2022/06/25 05:18:37;;;;;;;12.20;10.85;;;;;;;;;;5099093;28;20400;-76
2022/06/25 05:21:03;;;;;;;12.10;10.90;;;;;;;;;;5096635;28;20396;-76
2022/06/25 05:23:29;;;;;;;11.90;10.67;;;18.00;99.90;;;;;;5113459;28;20514;-76
2022/06/25 05:25:55;;;;;;;11.47;10.27;;;;;;;;;;5079495;28;20420;-76
2022/06/25 05:28:21;;;;;;;11.30;10.20;;;;;;;;;;5079677;28;20400;-76
2022/06/25 05:30:47;;;;;;;11.25;10.05;;;;;;;;;;5096445;28;20400;-76
2022/06/25 05:33:13;;;;;;;11.35;10.10;;;;;;;;;;5079430;28;20396;-76
2022/06/25 05:35:39;;;;;;;11.82;10.18;;;;;;;;;;5096261;28;20430;-76
2022/06/25 05:38:06;;;;;;;13.30;9.77;;;;;;;;;;5096109;28;20392;-76
2022/06/25 05:40:32;;;;;;;10.88;9.75;;;;;;;;;;5115066;28;20400;-76
2022/06/25 05:42:58;;;;;;;12.13;9.80;;;;;;;;;;5079336;28;20415;-77
2022/06/25 05:45:25;;;;;;;11.95;10.00;;;;;;;;;;5112909;28;20400;-76
2022/06/25 05:47:51;;;;;;;11.60;9.80;;;;;;;;;;5112972;28;20404;-76
2022/06/25 05:50:17;;;;;;;10.07;8.93;;;;;;;;;;5095922;28;20403;-76
2022/06/25 05:52:43;;;;;;;12.10;9.68;;;;;;;;;;5096159;28;20392;-77
2022/06/25 05:55:09;;;;;;;12.20;9.13;;;;;;;;;;5095884;28;20470;-77
2022/06/25 05:57:35;;;;;;;10.93;9.60;;;;;;;;;;5112823;28;20396;-77
2022/06/25 06:00:02;;;;;;;10.32;9.13;;;;;;;;;;5112724;28;20497;-77
2022/06/25 06:02:28;;;;;;;10.18;8.88;;;;;;;;;;5095660;28;20413;-77
2022/06/25 06:09:16;;;;;;;12.70;8.80;;;;;;;;;;5150401;27;20357;-77
2022/06/25 06:11:42;;;;;;;13.87;8.83;;;;;;;;;;5115216;27;20425;-77
2022/06/25 06:14:08;;;;;;;10.93;8.80;;;;;;;;;;5149111;27;20402;-77
2022/06/25 06:16:34;;;;;;;8.85;7.95;;;19.30;99.90;;;;;;5132185;27;20472;-77
2022/06/25 06:19:00;;;;;;;10.50;8.68;;;;;;;;;;5132197;27;20507;-77
2022/06/25 06:21:25;;;;;;;9.48;7.97;;;19.50;99.90;;;;;;5114684;27;20423;-77
2022/06/25 06:23:52;;;;;;;10.48;7.90;;;;;;;;;;5114663;27;20401;-76
2022/06/25 06:26:18;;;;;;;10.43;7.93;;;;;;;;;;5131540;27;20404;-75
2022/06/25 06:28:44;;;;;;;9.20;7.57;;;;;;;;;;5148910;27;20827;-76
2022/06/25 06:31:10;;;;;;;9.48;7.32;;;;;;;;;;5150040;27;20493;-76
2022/06/25 06:33:37;;;;;;;8.98;7.10;;;;;;;;;;5150031;27;20386;-76
2022/06/25 06:36:03;;;;;;;8.32;7.13;;;;;;;;;;5148601;27;20394;-75
2022/06/25 06:38:29;;;;;;;9.82;6.95;;;;;;;;;;5148731;27;20538;-76
2022/06/25 06:40:56;;;;;;;9.52;6.63;;;;;;;;;;5148585;27;20400;-76
2022/06/25 06:43:22;;;;;;;7.47;6.37;;;;;;;;;;5149945;27;20393;-76
2022/06/25 06:45:48;;;;;;;8.25;6.22;;;;;;;;;;5148884;27;20405;-76
2022/06/25 06:48:14;;;;;;;10.45;6.05;;;;;;;;;;5131224;27;20425;-76
2022/06/25 06:50:40;;;;;;;8.13;5.88;;;;;;;;;;5148765;27;20435;-76
2022/06/25 06:53:06;;;;;;;8.88;5.65;;;;;;;;;;5131640;27;20417;-76
2022/06/25 06:55:32;;;;;;;8.02;5.57;;;;;;;;;;5131248;27;20446;-76
2022/06/25 06:57:58;;;;;;;7.60;5.50;;;;;;;;;;5148242;27;20468;-76
2022/06/25 07:00:24;;;;;;;8.88;5.20;;;20.70;99.90;;;;;;5149433;27;20404;-77
2022/06/25 07:02:50;;;;;;;7.63;5.00;;;;;;;;;;5148467;27;20488;-76
2022/06/25 07:05:16;;;;;;;7.78;5.05;;;;;;;;;;5148494;27;20437;-76
2022/06/25 07:07:42;;;;;;;8.52;4.50;;;;;;;;;;5147876;27;20507;-76
2022/06/25 07:10:08;;;;;;;7.80;4.40;;;21.50;99.90;;;;;;5149390;27;20489;-76
2022/06/25 07:12:34;;;;;;;6.68;4.10;;;21.80;99.90;;;;;;5148342;27;20481;-77
2022/06/25 07:15:00;;;;;;;6.40;4.10;;;;;;;;;;5130853;27;20854;-77
2022/06/25 07:17:26;;;;;;;8.20;3.92;;;;;;;;;;5114094;27;20421;-77
2022/06/25 07:19:52;;;;;;;6.63;4.10;;;21.50;99.90;;;;;;5138760;27;20391;-76
2022/06/25 07:22:18;;;;;;;7.77;4.00;;;21.60;99.90;;;;;;5100056;27;20913;-77
2022/06/25 07:24:43;;;;;;;7.07;3.87;;;21.90;99.90;;;;;;5117157;27;20394;-77
2022/06/25 07:27:09;;;;;;;6.32;3.90;;;;;;;;;;5116985;27;21004;-77
2022/06/25 07:29:35;;;;;;;7.20;3.60;;;;;;;;;;5117204;27;20394;-77
2022/06/25 07:32:01;;;;;;;7.65;3.70;;;22.20;99.90;;;;;;5099980;27;20400;-77
2022/06/25 07:34:27;;;;;;;6.70;3.60;;;22.10;99.90;;;;;;5116839;27;20398;-77
2022/06/25 07:36:52;;;;;;;7.90;3.30;;;22.30;99.90;;;;;;5116768;27;20386;-77
2022/06/25 07:39:18;;;;;;;5.77;3.73;;;;;;;;;;5083122;27;20486;-77
2022/06/25 07:41:44;;;;;;;5.40;3.30;;;;;;;;;;5133841;27;20397;-77
2022/06/25 07:44:12;;;;;;;5.63;3.27;;;22.30;99.90;;;;;;5133933;27;20390;-77
2022/06/25 07:46:38;;;;;;;5.93;3.47;;;;;;;;;;5134071;27;20783;-77
2022/06/25 07:49:04;;;;;;;6.93;3.60;;;22.40;99.90;;;;;;5116476;27;20426;-77
2022/06/25 07:54:14;;;;;;;7.10;3.80;;;22.50;99.90;;;;;;5118943;27;20878;-77
2022/06/25 07:56:40;;;;;;;7.97;3.50;;;22.50;99.90;;;;;;5133453;27;20390;-77
2022/06/25 07:59:06;;;;;;;7.18;3.42;;;;;;;;;;5133571;27;20754;-77
2022/06/25 08:01:32;;;;;;;6.28;3.70;;;;;;;;;;5133383;27;20427;-75
2022/06/25 08:03:58;;;;;;;8.23;3.80;;;23.10;99.90;;;;;;5133210;27;20410;-77
2022/06/25 08:06:23;;;;;;;8.98;4.20;;;22.80;99.90;;;;;;5133294;27;20561;-77
2022/06/25 08:08:49;;;;;;;6.47;3.95;;;22.90;99.90;;;;;;5132947;27;20425;-76
2022/06/25 08:11:15;;;;;;;10.27;4.20;;;;;;;;;;5116320;27;20489;-76
2022/06/25 08:13:41;;;;;;;7.10;3.90;;;23.10;99.90;;;;;;5134483;27;20386;-76
2022/06/25 08:16:09;;;;;;;5.60;3.60;;;23.40;99.90;;;;;;5133306;27;20397;-76
2022/06/25 08:18:36;;;;;;;5.80;3.45;;;;;;;;;;5115942;27;20447;-76
2022/06/25 08:21:03;;;;;;;7.53;3.40;;;23.50;99.90;;;;;;5116188;27;20738;-77
2022/06/25 08:23:28;;;;;;;6.38;2.97;;;22.90;99.90;;;;;;5116011;27;20390;-77
2022/06/25 08:25:54;;;;;;;5.50;3.40;;;;;;;;;;5116035;27;20398;-77
2022/06/25 08:28:20;;;;;;;6.28;3.60;;;23.20;99.90;;;;;;5115803;27;20510;-77
2022/06/25 08:30:46;;;;;;;5.65;3.03;;;;;;;;;;5114913;27;20495;-76
2022/06/25 08:33:14;;;;;;;8.02;2.90;;;23.20;99.90;;;;;;5132771;27;20390;-77
2022/06/25 08:35:40;;;;;;;4.90;2.90;;;23.20;99.90;;;;;;5134027;27;20943;-77
2022/06/25 08:38:06;;;;;;;5.72;3.20;;;;;;;;;;5098722;27;20446;-76
2022/06/25 08:40:33;;;;;;;5.70;3.22;;;;;;;;;;5115748;27;20835;-76
2022/06/25 08:42:59;;;;;;;5.10;3.38;;;23.30;99.90;;;;;;5132865;27;20394;-76
2022/06/25 08:45:25;;;;;;;5.65;3.15;;;23.30;99.90;;;;;;5132878;27;20395;-77
2022/06/25 08:47:52;;;;;;;6.97;3.35;;;23.50;99.90;;;;;;5132376;27;20471;-77
2022/06/25 08:50:21;;;;;;;4.20;2.85;;;23.60;99.90;;;;;;5132498;27;20429;-78
2022/06/25 08:52:52;;;;;;;6.05;3.38;;;24.00;99.90;;;;;;5115487;27;20882;-78
2022/06/25 08:55:38;;;;;;;5.47;2.92;;;23.30;99.90;;;;;;5132334;27;20894;-77
2022/06/25 08:58:06;;;;;;;5.30;2.92;;;23.40;99.90;;;;;;5115234;27;20406;-77
2022/06/25 09:00:33;;;;;;;5.68;2.88;;;23.10;99.90;;;;;;5132435;27;20398;-77
2022/06/25 09:03:00;;;;;;;4.47;2.55;;;23.00;99.90;;;;;;5115328;27;20749;-77
2022/06/25 09:05:34;;;;;;;4.18;2.50;;;23.90;99.90;;;;;;5132153;27;20405;-77
2022/06/25 09:08:02;;;;;;;6.32;2.92;;;23.80;99.90;;;;;;5132420;27;20941;-77
2022/06/25 09:10:29;;;;;;;6.20;2.80;;;23.70;99.90;;;;;;5132345;27;20432;-77
2022/06/25 09:12:57;;;;;;;5.55;2.70;;;23.80;99.90;;;;;;5132079;27;20401;-77
2022/06/25 09:15:53;;;;;;;6.28;2.50;;;24.10;99.90;;;;;;5115023;27;20395;-77
2022/06/25 09:18:19;;;;;;;5.00;2.30;;;24.40;99.90;;;;;;5111665;27;20743;-77
2022/06/25 09:21:04;;;;;;;4.80;2.20;;;24.50;99.90;;;;;;5114659;27;20897;-77
2022/06/25 09:23:35;;;;;;;3.55;2.00;;;24.00;99.90;;;;;;5132012;27;20452;-77
2022/06/25 09:26:10;;;;;;;4.00;1.67;;;24.20;99.90;;;;;;5114467;27;20398;-77
2022/06/25 09:28:38;;;;;;;2.80;1.77;;;25.00;99.90;;;;;;5131704;27;20918;-77
2022/06/25 09:31:05;;;;;;;4.90;1.80;;;24.70;99.90;;;;;;5131737;27;20407;-77
2022/06/25 09:33:33;;;;;;;4.53;2.00;;;24.80;99.90;;;;;;5114830;27;20386;-77
2022/06/25 09:35:59;;;;;;;5.38;2.00;;;24.40;99.90;;;;;;5098109;27;20712;-77
2022/06/25 09:38:26;;;;;;;4.25;1.80;;;24.50;99.90;;;;;;5131443;27;20406;-77
2022/06/25 09:40:57;;;;;;;4.95;2.00;;;24.70;99.90;;;;;;5097672;27;20499;-77
2022/06/25 09:43:28;;;;;;;4.10;1.80;;;25.20;99.90;;;;;;5114322;27;20406;-77
2022/06/25 09:45:55;;;;;;;5.72;1.98;;;25.40;99.90;;;;;;5114294;27;20402;-77
2022/06/25 09:48:29;;;;;;;5.25;1.80;;;24.40;99.90;;;;;;5131181;27;20493;-77
2022/06/25 09:51:23;;;;;;;4.82;1.80;;;24.20;99.90;;;;;;5131345;27;20401;-77
2022/06/25 09:53:58;;;;;;;5.40;2.20;;;24.60;99.90;;;;;;5114127;27;20398;-77
2022/06/25 09:56:28;;;;;;;4.38;2.00;;;25.10;99.90;;;;;;5114105;27;20401;-77
2022/06/25 09:58:55;;;;;;;5.18;2.20;;;25.20;99.90;;;;;;5114426;27;20397;-77
2022/06/25 10:01:26;;;;;;;6.07;2.10;;;24.90;99.90;;;;;;5131218;27;20478;-78
2022/06/25 10:03:53;;;;;;;4.43;1.88;;;25.40;99.90;;;;;;5114073;28;20882;-77
2022/06/25 10:06:21;;;;;;;4.32;1.88;;;25.20;99.90;;;;;;5131290;27;20421;-78
2022/06/25 10:08:52;;;;;;;4.65;1.70;;;25.20;99.90;;;;;;5113746;28;20820;-79
2022/06/25 10:11:21;;;;;;;3.95;1.60;;;25.50;99.90;;;;;;5131377;27;20503;-79
2022/06/25 10:13:51;;;;;;;3.10;1.55;;;25.60;99.90;;;;;;5131395;28;20402;-79
2022/06/25 10:16:21;;;;;;;3.17;1.40;;;25.50;99.90;;;;;;5131113;28;20395;-79
2022/06/25 10:18:50;;;;;;;5.10;1.70;;;25.50;99.90;;;;;;5114048;28;20485;-79
2022/06/25 10:21:22;;;;;;;3.15;1.60;;;25.90;99.90;;;;;;5131053;28;20917;-79
2022/06/25 10:23:54;;;;;;;4.05;1.50;;;25.80;99.90;;;;;;5113870;27;20391;-80
2022/06/25 10:26:21;;;;;;;3.58;1.50;;;25.50;99.90;;;;;;5113845;28;20394;-79
2022/06/25 10:28:47;;;;;;;3.58;1.48;;;25.00;99.90;;;;;;5113796;28;20419;-79
2022/06/25 10:31:16;;;;;;;3.65;1.55;;;24.80;99.90;;;;;;5131047;28;20474;-80
2022/06/25 10:33:55;;;;;;;6.22;1.95;;;25.30;99.90;;;;;;5131173;28;20394;-79
2022/06/25 10:36:45;;;;;;;3.13;1.60;;;25.60;99.90;;;;;;5113834;28;20401;-79
2022/06/25 10:39:25;;;;;;;3.28;1.33;;;25.60;99.90;;;;;;5130941;28;20402;-79
2022/06/25 10:45:00;;;;;;;3.10;1.60;;;25.30;99.90;;;;;;5130773;28;20766;-80
2022/06/25 10:47:50;;;;;;;4.60;1.70;;;25.00;99.90;;;;;;5113667;28;20422;-80
2022/06/25 10:50:22;;;;;;;4.97;1.80;;;25.30;99.90;;;;;;5105978;28;20435;-79
2022/06/25 10:53:03;;;;;;;5.10;1.70;;;24.80;99.90;;;;;;5131103;27;20426;-79
2022/06/25 10:55:39;;;;;;;3.10;1.70;;;24.50;99.90;;;;;;5133999;27;20395;-79
2022/06/25 10:58:11;;;;;;;7.15;2.03;;;24.70;99.90;;;;;;5135098;27;20936;-79
2022/06/25 11:01:01;;;;;;;6.77;2.00;;;24.50;99.90;;;;;;5121062;27;20398;-80
2022/06/25 11:03:32;;;;;;;3.42;1.70;;;25.00;99.90;;;;;;5134512;27;20405;-80
2022/06/25 11:06:20;;;;;;;3.38;1.88;;;25.40;99.90;;;;;;5134242;27;20402;-79
2022/06/25 11:08:47;;;;;;;3.73;1.77;;;25.40;99.90;;;;;;5133933;27;20475;-79
2022/06/25 11:11:23;;;;;;;3.63;1.50;;;25.50;99.90;;;;;;5100275;27;20742;-79
2022/06/25 11:13:49;;;;;;;5.00;1.60;;;25.50;99.90;;;;;;5134275;27;20402;-79
2022/06/25 11:16:16;;;;;;;3.70;1.50;;;25.80;99.90;;;;;;5117572;27;20395;-76
2022/06/25 11:18:54;;;;;;;2.90;1.30;;;26.10;99.90;;;;;;5117094;27;20444;-76
2022/06/25 11:21:37;;;;;;;5.53;1.73;;;26.10;99.90;;;;;;5134039;27;20439;-77
2022/06/25 11:24:24;;;;;;;2.95;1.40;;;25.50;99.90;;;;;;5134001;27;20776;-76
2022/06/25 11:29:48;;;;;;;4.78;1.80;;;24.70;99.90;;;;;;5133860;27;20398;-76
2022/06/25 11:32:28;;;;;;;3.22;1.77;;;24.80;99.90;;;;;;5133561;27;20423;-77
2022/06/25 11:34:59;;;;;;;3.37;1.60;;;25.00;99.90;;;;;;5133647;27;20398;-76
2022/06/25 11:37:26;;;;;;;4.28;1.88;;;24.50;99.90;;;;;;5116634;27;20395;-77
2022/06/25 11:39:52;;;;;;;3.13;1.58;;;24.40;99.90;;;;;;5133775;27;20440;-76
2022/06/25 11:42:19;;;;;;;2.50;1.58;;;24.50;99.90;;;;;;5133624;27;20469;-76
2022/06/25 11:44:57;;;;;;;3.63;1.75;;;24.40;99.90;;;;;;5116765;27;20413;-77
2022/06/25 11:47:25;;;;;;;3.03;1.60;;;24.60;99.90;;;;;;5133562;27;20501;-77
2022/06/25 11:49:52;;;;;;;3.45;1.70;;;24.80;99.90;;;;;;5116298;27;20406;-77
2022/06/25 11:52:21;;;;;;;4.55;1.90;;;24.70;99.90;;;;;;5116296;27;20451;-77
2022/06/25 11:54:47;;;;;;;4.73;1.80;;;24.60;99.90;;;;;;5116417;27;20692;-77
2022/06/25 11:57:22;;;;;;;4.32;1.88;;;24.60;99.90;;;;;;5099339;27;20401;-76
2022/06/25 11:59:49;;;;;;;3.85;1.70;;;24.60;99.90;;;;;;5116040;27;20407;-77
2022/06/25 12:02:15;;;;;;;4.38;2.00;;;24.40;99.90;;;;;;5116137;27;20481;-77
2022/06/25 12:04:59;;;;;;;3.53;1.92;;;24.40;99.90;;;;;;5115849;27;20483;-77
2022/06/25 12:07:26;;;;;;;3.67;1.90;;;;;;;;;;5132680;27;20458;-78
2022/06/25 12:09:59;;;;;;;3.67;2.10;;;24.00;99.90;;;;;;5115838;27;20398;-77
2022/06/25 12:12:26;;;;;;;3.65;2.10;;;23.90;99.90;;;;;;5133038;27;20399;-77
2022/06/25 12:14:54;;;;;;;6.05;2.30;;;23.40;99.90;;;;;;5133081;27;20401;-77
2022/06/25 12:17:20;;;;;;;5.95;2.42;;;;;;;;;;5132995;27;20893;-77
2022/06/25 12:19:53;;;;;;;5.60;2.42;;;23.20;99.90;;;;;;5132989;27;20402;-77
2022/06/25 12:22:29;;;;;;;4.80;2.38;;;23.20;99.90;;;;;;5115728;27;20909;-76
2022/06/25 12:24:58;;;;;;;4.43;2.75;;;23.10;99.90;;;;;;5133113;27;20398;-77
2022/06/25 12:27:24;;;;;;;5.38;2.75;;;22.70;99.90;;;;;;5132869;27;20828;-77
2022/06/25 12:29:53;;;;;;;5.35;3.03;;;22.80;99.90;;;;;;5132698;27;20402;-77
2022/06/25 12:32:19;;;;;;;4.50;2.53;;;23.00;99.90;;;;;;5098966;27;20401;-77
2022/06/25 12:34:51;;;;;;;6.65;2.90;;;23.20;99.90;;;;;;5115520;27;20395;-78
2022/06/25 12:37:31;;;;;;;5.78;2.70;;;22.90;99.90;;;;;;5132424;27;20486;-77
2022/06/25 12:39:58;;;;;;;9.97;2.73;;;23.20;99.90;;;;;;5115503;27;20399;-78
2022/06/25 12:42:28;;;;;;;7.85;2.70;;;23.30;99.90;;;;;;5132426;27;20395;-78
2022/06/25 12:44:55;;;;;;;8.20;2.58;;;23.20;99.90;;;;;;5132564;27;20399;-78
2022/06/25 12:47:22;;;;;;;3.90;2.60;;;;;;;;;;5115393;27;20499;-77
2022/06/25 12:49:51;;;;;;;5.07;2.50;;;23.50;99.90;;;;;;5133254;27;20579;-77
2022/06/25 12:52:20;;;;;;;5.47;2.70;;;23.40;99.90;;;;;;5132452;27;20475;-78
2022/06/25 12:54:50;;;;;;;5.28;3.20;;;23.30;99.90;;;;;;5132282;27;20391;-78
2022/06/25 12:57:25;;;;;;;8.13;4.03;;;;;;;;;;5132363;27;20394;-78
2022/06/25 12:59:51;;;;;;;4.97;3.50;;;23.10;99.90;;;;;;5115282;27;20398;-78
2022/06/25 13:02:18;;;;;;;6.73;3.37;;;;;;;;;;5132348;27;20474;-78
2022/06/25 13:04:44;;;;;;;4.65;3.40;;;;;;;;;;5133677;27;20387;-78
2022/06/25 13:07:13;;;;;;;4.90;3.45;;;23.30;99.90;;;;;;5131791;27;20446;-78
2022/06/25 13:09:40;;;;;;;6.65;3.70;;;23.50;99.90;;;;;;5132146;27;20399;-78
2022/06/25 13:12:06;;;;;;;5.97;3.85;;;;;;;;;;5131999;27;20402;-78
2022/06/25 13:14:32;;;;;;;7.10;3.95;;;23.70;99.90;;;;;;5115246;27;20742;-78
2022/06/25 13:16:59;;;;;;;5.00;3.90;;;;;;;;;;5080973;27;20394;-78
2022/06/25 13:19:25;;;;;;;5.97;3.80;;;24.00;99.90;;;;;;5098056;27;20399;-78
2022/06/25 13:21:52;;;;;;;5.85;3.67;;;24.30;99.90;;;;;;5114610;27;20405;-78
2022/06/25 13:24:17;;;;;;;6.45;3.80;;;24.20;99.90;;;;;;5114749;27;20398;-78
2022/06/25 13:26:43;;;;;;;8.02;3.83;;;24.30;99.90;;;;;;5097638;27;20398;-78
2022/06/25 13:29:09;;;;;;;5.68;3.85;;;24.50;99.90;;;;;;5131323;27;20407;-77
2022/06/25 13:31:35;;;;;;;5.32;3.55;;;24.50;99.90;;;;;;5114733;27;20494;-77
2022/06/25 13:34:01;;;;;;;4.50;3.80;;;24.60;99.90;;;;;;5097559;27;20405;-77
2022/06/25 13:36:27;;;;;;;5.20;3.57;;;24.90;99.90;;;;;;5114753;27;20394;-77
2022/06/25 13:38:53;;;;;;;6.03;3.65;;;25.00;99.90;;;;;;5114202;27;20946;-77
2022/06/25 13:41:20;;;;;;;5.17;3.70;;;25.00;99.90;;;;;;5114853;27;20398;-77
2022/06/25 13:43:46;;;;;;;6.53;3.40;;;25.20;99.90;;;;;;5131622;27;20399;-77
2022/06/25 13:46:11;;;;;;;4.30;3.10;;;25.10;99.90;;;;;;5131437;27;20455;-77
2022/06/25 13:48:37;;;;;;;5.80;3.17;;;24.80;99.90;;;;;;5131393;27;20418;-76
2022/06/25 13:51:03;;;;;;;4.72;3.00;;;25.00;99.90;;;;;;5114278;27;20407;-77
2022/06/25 13:53:30;;;;;;;5.22;3.03;;;25.10;99.90;;;;;;5131348;27;20395;-77
2022/06/25 13:55:57;;;;;;;5.38;3.00;;;25.20;99.90;;;;;;5132641;27;20390;-77
2022/06/25 13:58:22;;;;;;;4.50;3.22;;;25.30;99.90;;;;;;5114108;28;20406;-77
2022/06/25 14:00:48;;;;;;;5.03;3.30;;;25.30;99.90;;;;;;5114444;28;20391;-77
2022/06/25 14:03:14;;;;;;;5.95;3.10;;;25.60;99.90;;;;;;5131576;27;20394;-77
2022/06/25 14:05:40;;;;;;;4.13;2.70;;;25.00;99.90;;;;;;5131188;27;20401;-77
2022/06/25 14:08:05;;;;;;;4.30;2.88;;;25.10;99.90;;;;;;5113620;28;20437;-77
2022/06/25 14:10:31;;;;;;;4.83;3.67;;;24.50;99.90;;;;;;5131214;27;20398;-76
2022/06/25 14:12:57;;;;;;;7.03;3.30;;;24.20;99.90;;;;;;5132276;27;21093;-77
2022/06/25 14:15:23;;;;;;;5.00;3.13;;;25.00;99.90;;;;;;5114007;28;20395;-77
2022/06/25 14:17:49;;;;;;;4.13;3.20;;;24.80;99.90;;;;;;5131123;28;20402;-77
2022/06/25 14:20:15;;;;;;;6.53;3.38;;;24.10;99.90;;;;;;5113889;28;20399;-78
2022/06/25 14:22:41;;;;;;;5.20;3.13;;;25.00;99.90;;;;;;5131153;27;20402;-78
2022/06/25 14:25:24;;;;;;;6.10;2.70;;;25.20;99.90;;;;;;5130918;28;20482;-78
2022/06/25 14:27:51;;;;;;;5.68;3.00;;;25.50;99.90;;;;;;5130907;27;20506;-78
2022/06/25 14:30:17;;;;;;;4.60;2.88;;;26.10;99.90;;;;;;5133976;27;20390;-78
2022/06/25 14:32:43;;;;;;;3.70;2.35;;;26.60;99.90;;;;;;5135235;27;20427;-80
2022/06/25 14:35:10;;;;;;;3.88;2.10;;;26.80;99.90;;;;;;5101213;27;20495;-80
2022/06/25 14:43:06;;;;;;;5.40;2.30;;;27.40;99.90;;;;;;5134906;27;20409;-80
2022/06/25 14:45:32;;;;;;;4.30;2.40;;;27.20;99.90;;;;;;5101872;27;20853;-81
2022/06/25 14:47:57;;;;;;;5.90;2.40;;;27.40;99.90;;;;;;5117743;27;20414;-80
2022/06/25 14:50:23;;;;;;;4.07;2.00;;;27.30;99.90;;;;;;5101107;27;20401;-80
2022/06/25 14:52:49;;;;;;;3.75;1.92;;;28.00;99.90;;;;;;5135377;27;20406;-82
2022/06/25 14:55:15;;;;;;;3.33;2.17;;;28.50;99.90;;;;;;5100793;27;20395;-82
2022/06/25 14:57:41;;;;;;;4.15;2.10;;;27.20;99.90;;;;;;5134915;27;20399;-80
2022/06/25 15:00:09;;;;;;;2.83;1.90;;;27.40;99.90;;;;;;5134623;27;20398;-80
2022/06/25 15:02:35;;;;;;;3.17;1.80;;;27.60;99.90;;;;;;5134553;27;20394;-80
2022/06/25 15:05:02;;;;;;;4.47;1.98;;;26.90;99.90;;;;;;5117236;27;20398;-80
2022/06/25 15:07:27;;;;;;;4.38;2.17;;;26.80;99.90;;;;;;5134312;27;20438;-79
2022/06/25 15:09:54;;;;;;;3.80;1.95;;;26.60;99.90;;;;;;5117177;27;20757;-80
2022/06/25 15:12:20;;;;;;;2.85;1.90;;;26.60;99.90;;;;;;5117181;27;20401;-80
2022/06/25 15:14:46;;;;;;;2.60;1.70;;;26.60;99.90;;;;;;5134565;27;20893;-80
2022/06/25 15:17:11;;;;;;;3.37;2.00;;;26.30;99.90;;;;;;5134234;27;20465;-80
2022/06/25 15:19:37;;;;;;;5.77;3.93;;;26.10;99.90;;;;;;5134256;27;20394;-80
2022/06/25 15:22:03;;;;;;;9.07;6.47;;;25.80;99.90;;;;;;5134108;27;20395;-80
2022/06/25 15:24:29;;;;;;;8.38;7.15;;;25.00;99.90;;;;;;5117231;27;20390;-80
2022/06/25 15:26:55;;;;;;;8.15;7.32;;;24.60;99.90;;;;;;5133789;27;20395;-80
2022/06/25 15:29:21;;;;;;;9.98;7.78;;;24.50;99.90;;;;;;5133835;27;20414;-80
2022/06/25 15:31:47;;;;;;;8.68;7.70;;;24.10;99.90;;;;;;5116631;27;20405;-80
2022/06/25 15:34:12;;;;;;;9.70;8.40;;;24.20;99.90;;;;;;5117407;27;20395;-80
2022/06/25 15:36:38;;;;;;;10.40;8.60;;;24.40;99.90;;;;;;5116742;27;20414;-81
2022/06/25 15:39:05;;;;;;;10.73;8.68;;;24.50;99.90;;;;;;5134024;27;20421;-81
2022/06/25 15:41:30;;;;;;;9.27;8.00;;;24.20;99.90;;;;;;5133040;27;20401;-82
2022/06/25 15:43:57;;;;;;;10.25;8.10;;;24.60;99.90;;;;;;5133523;27;20395;-81
2022/06/25 15:46:23;;;;;;;9.88;7.13;;;24.70;99.90;;;;;;5116382;27;20425;-81
2022/06/25 15:48:48;;;;;;;8.90;6.45;;;24.50;99.90;;;;;;5133560;27;20418;-81
2022/06/25 15:51:14;;;;;;;9.55;5.13;;;25.00;99.90;;;;;;5116549;27;20878;-81
2022/06/25 15:53:40;;;;;;;8.47;4.20;;;24.50;99.90;;;;;;5116388;27;20402;-80
2022/06/25 15:56:06;;;;;;;8.07;3.65;;;24.10;99.90;;;;;;5133427;27;20394;-80
2022/06/25 15:59:27;;;;;;;8.98;4.35;;;24.20;99.90;;;;;;5133793;27;20399;-80
2022/06/25 16:01:18;;;;;;;7.60;4.25;;;23.60;99.90;;;;;;5133236;27;20402;-80
2022/06/25 16:03:44;;;;;;;8.48;4.43;;;23.70;99.90;;;;;;5133287;27;20399;-79
2022/06/25 16:06:10;;;;;;;7.88;4.00;;;23.60;99.90;;;;;;5133584;27;20791;-80
2022/06/25 16:08:36;;;;;;;9.32;4.65;;;23.70;99.90;;;;;;5132889;27;20419;-80
2022/06/25 16:11:30;;;;;;;10.13;4.80;;;23.70;99.90;;;;;;5133374;27;20398;-79
2022/06/25 16:13:48;;;;;;;10.02;4.78;;;23.80;99.90;;;;;;5133099;27;20405;-80
2022/06/25 16:16:14;;;;;;;8.18;4.47;;;;;;;;;;5099393;27;20391;-80
2022/06/25 16:18:40;;;;;;;8.02;4.05;;;23.10;99.90;;;;;;5115990;27;20405;-80
2022/06/25 16:21:07;;;;;;;9.37;4.70;;;22.70;99.90;;;;;;5133015;27;20398;-80
2022/06/25 16:23:34;;;;;;;9.45;4.97;;;22.50;99.90;;;;;;5082889;27;20402;-80
2022/06/25 16:25:59;;;;;;;9.35;4.40;;;22.10;99.90;;;;;;5132962;27;20394;-80
2022/06/25 16:28:25;;;;;;;8.60;4.30;;;22.00;99.90;;;;;;5115692;27;20418;-80
2022/06/25 16:30:51;;;;;;;8.68;4.57;;;22.30;99.90;;;;;;5132896;27;20401;-80
2022/06/25 16:33:17;;;;;;;7.28;4.20;;;;;;;;;;5115975;27;20467;-80
2022/06/25 16:35:42;;;;;;;10.00;4.78;;;22.20;99.90;;;;;;5115769;27;20395;-80
2022/06/25 16:38:09;;;;;;;10.37;4.50;;;;;;;;;;5115796;27;20452;-80
2022/06/25 16:40:35;;;;;;;9.40;4.38;;;;;;;;;;5132667;27;20951;-80
2022/06/25 16:43:00;;;;;;;8.98;4.25;;;22.30;99.90;;;;;;5098813;27;20399;-80
2022/06/25 16:45:26;;;;;;;8.75;4.00;;;22.50;99.90;;;;;;5132489;27;20738;-80
2022/06/25 16:47:52;;;;;;;7.85;3.78;;;22.50;99.90;;;;;;5115209;27;20505;-80
2022/06/25 16:50:19;;;;;;;8.10;3.65;;;22.40;99.90;;;;;;5115380;27;20403;-80
2022/06/25 16:52:46;;;;;;;9.65;3.70;;;22.50;99.90;;;;;;5114581;27;20963;-80
2022/06/25 16:55:12;;;;;;;8.77;3.72;;;;;;;;;;5081438;27;20395;-80
2022/06/25 16:57:37;;;;;;;8.13;3.85;;;22.70;99.90;;;;;;5115496;27;20395;-79
2022/06/25 17:00:05;;;;;;;9.13;4.40;;;22.70;99.90;;;;;;5115058;27;20406;-79
2022/06/25 17:02:31;;;;;;;9.67;4.37;;;23.20;99.90;;;;;;5081460;27;20394;-79
2022/06/25 17:04:57;;;;;;;9.63;4.30;;;22.70;99.90;;;;;;5132118;27;20394;-79
2022/06/25 17:07:22;;;;;;;8.87;4.17;;;22.60;99.90;;;;;;5131734;27;20406;-79
2022/06/25 17:09:48;;;;;;;10.15;4.65;;;22.40;99.90;;;;;;5132013;27;20465;-79
2022/06/25 17:12:33;;;;;;;10.85;4.43;;;22.70;99.90;;;;;;5132058;27;20397;-79
2022/06/25 17:15:00;;;;;;;9.57;3.83;;;22.50;99.90;;;;;;5132287;27;20387;-79
2022/06/25 17:17:26;;;;;;;11.15;4.15;;;22.40;99.90;;;;;;5114950;27;20448;-79
2022/06/25 17:19:53;;;;;;;10.45;4.15;;;22.70;99.90;;;;;;5132004;27;20395;-79
2022/06/25 17:22:19;;;;;;;10.10;4.10;;;23.10;99.90;;;;;;5114791;27;20394;-79
2022/06/25 17:24:45;;;;;;;11.53;4.20;;;23.00;99.90;;;;;;5132144;27;20401;-79
2022/06/25 17:27:11;;;;;;;12.77;4.20;;;23.40;99.90;;;;;;5115098;27;20862;-78
2022/06/25 17:29:38;;;;;;;9.90;4.23;;;23.40;99.90;;;;;;5131946;27;20869;-79
2022/06/25 17:32:04;;;;;;;12.60;4.40;;;23.60;99.90;;;;;;5115211;27;20407;-79
2022/06/25 17:34:30;;;;;;;10.75;4.30;;;24.10;99.90;;;;;;5132169;27;20395;-79
2022/06/25 17:36:56;;;;;;;13.85;4.50;;;24.40;99.90;;;;;;5114821;27;20732;-79
2022/06/25 17:39:22;;;;;;;12.60;4.60;;;24.40;99.90;;;;;;5131653;27;20415;-79
2022/06/25 17:41:48;;;;;;;12.38;4.70;;;;;;;;;;5131514;27;20395;-79
2022/06/25 17:44:14;;;;;;;9.68;3.90;;;24.40;99.90;;;;;;5131731;27;20399;-79